Weather reports worldwide

Advertisment
Chamonix, France (7469): temperature & dewpoint: 20.03.2019 20:00:00 - 26.03.2019 20:00:00 (CET)Chamonix, France (7469): wind speed & gusts: 20.03.2019 20:00:00 - 26.03.2019 20:00:00 (CET)Chamonix, France (7469): wind direction: 20.03.2019 20:00:00 - 26.03.2019 20:00:00 (CET)Chamonix, France (7469): precipitation: 20.03.2019 20:00:00 - 26.03.2019 20:00:00 (CET)
Date & Time tt [°C] td [°C] ff [km/h] ff [kn] fx [km/h] fx [kn] dd rr [mm]
26.03.2019 20:00:00 - - - - - - - -
26.03.2019 19:00:00 4,4 -7,7 5 3 24 13 NNE -
26.03.2019 18:00:00 5,6 -8,0 4 2 22 12 NNW 0,0
26.03.2019 17:00:00 10,1 -8,6 8 4 29 16 ENE 0,0
26.03.2019 16:00:00 10,2 -8,0 9 5 29 16 E 0,0
26.03.2019 15:00:00 10,3 -9,4 9 5 37 20 E 0,0
26.03.2019 14:00:00 10,6 -9,7 9 5 41 22 E 0,0
26.03.2019 13:00:00 9,7 -10,5 16 9 54 29 ESE -
26.03.2019 12:00:00 8,1 -7,6 16 9 44 24 ESE 0,0
26.03.2019 11:00:00 6,3 -7,3 13 7 35 19 ESE 0,0
26.03.2019 10:00:00 3,6 -7,0 8 4 18 10 SSW 0,0
26.03.2019 09:00:00 -1,5 -5,7 0 0 11 6 N 0,0
26.03.2019 08:00:00 -1,2 -5,4 5 3 18 10 S 0,0
26.03.2019 07:00:00 -1,2 -6,2 4 2 11 6 NW -
26.03.2019 06:00:00 -0,3 -6,5 4 2 13 7 NNW 0,0
26.03.2019 05:00:00 -0,4 -6,6 4 2 22 12 NE 0,0
26.03.2019 04:00:00 0,3 -6,1 5 3 22 12 E 0,0
26.03.2019 03:00:00 0,1 -6,5 4 2 26 14 ENE 0,0
26.03.2019 02:00:00 0,2 -6,0 4 2 16 9 ESE 0,0
26.03.2019 01:00:00 0,8 -7,5 2 1 13 7 NNE -
26.03.2019 00:00:00 1,1 -7,4 5 3 16 9 E 0,0
25.03.2019 23:00:00 1,6 -8,2 8 4 22 12 ENE 0,0
25.03.2019 22:00:00 2,0 -8,1 5 3 29 16 E 0,0
25.03.2019 21:00:00 2,3 -6,6 8 4 37 20 E 0,0
25.03.2019 20:00:00 3,3 -7,2 11 6 35 19 NE 0,0
25.03.2019 19:00:00 4,1 -5,7 8 4 31 17 NE -
25.03.2019 18:00:00 4,8 -4,2 8 4 39 21 N 0,0
25.03.2019 17:00:00 8,2 -3,0 11 6 39 21 NE 0,0
25.03.2019 16:00:00 9,6 -1,2 5 3 16 9 N 0,0
25.03.2019 15:00:00 10,2 -0,9 4 2 28 15 N 0,0
25.03.2019 14:00:00 10,7 -1,4 9 5 37 20 SSW 0,0
25.03.2019 13:00:00 12,7 0,4 11 6 31 17 SSW -
25.03.2019 12:00:00 10,3 0,3 5 3 13 7 WSW 0,0
25.03.2019 11:00:00 9,7 1,1 4 2 9 5 SE 0,0
25.03.2019 10:00:00 5,4 1,3 0 0 4 2 N 0,0
25.03.2019 09:00:00 0,2 -0,1 0 0 4 2 N 0,0
25.03.2019 08:00:00 -1,7 -2,1 0 0 4 2 N 0,0
25.03.2019 07:00:00 -1,9 -2,3 4 2 5 3 NE -
25.03.2019 06:00:00 -2,0 -2,4 4 2 8 4 ENE 0,0
25.03.2019 05:00:00 -1,7 -2,3 0 0 4 2 N 0,0
25.03.2019 04:00:00 -1,5 -2,2 0 0 8 4 N 0,0
25.03.2019 03:00:00 -1,0 -1,8 0 0 8 4 N 0,0
25.03.2019 02:00:00 -0,5 -1,5 0 0 8 4 N 0,0
25.03.2019 01:00:00 0,0 -1,3 2 1 9 5 NNE -
25.03.2019 00:00:00 0,5 -1,0 2 1 8 4 E 0,0
24.03.2019 23:00:00 1,5 -0,4 4 2 8 4 E 0,0
24.03.2019 22:00:00 2,1 -0,7 4 2 8 4 NNE 0,0
24.03.2019 21:00:00 3,3 -0,3 2 1 8 4 N 0,0
24.03.2019 20:00:00 5,0 0,0 2 1 8 4 E 0,0
24.03.2019 19:00:00 7,1 0,3 0 0 9 5 N -
24.03.2019 18:00:00 12,4 -1,2 4 2 16 9 W 0,0
24.03.2019 17:00:00 16,9 -3,8 8 4 24 13 WSW 0,0
24.03.2019 16:00:00 16,9 -5,6 11 6 29 16 W 0,0
24.03.2019 15:00:00 19,7 -4,6 9 5 22 12 S 0,0
24.03.2019 14:00:00 17,3 -2,9 8 4 22 12 WSW 0,0
24.03.2019 13:00:00 17,2 -4,7 8 4 18 10 SW -
24.03.2019 12:00:00 17,4 -4,6 4 2 11 6 S 0,0
24.03.2019 11:00:00 12,9 -2,6 4 2 8 4 ESE 0,0
24.03.2019 10:00:00 5,1 1,2 0 0 4 2 N 0,0
24.03.2019 09:00:00 -1,6 -2,2 2 1 5 3 ESE 0,0
24.03.2019 08:00:00 -2,3 -2,9 0 0 4 2 N 0,0
24.03.2019 07:00:00 -2,6 -3,3 0 0 4 2 N -
24.03.2019 06:00:00 -2,5 -3,2 0 0 8 4 N 0,0
24.03.2019 05:00:00 -2,3 -3,0 0 0 5 3 N 0,0
24.03.2019 04:00:00 -2,1 -2,9 0 0 8 4 N 0,0
24.03.2019 03:00:00 -1,9 -2,7 0 0 8 4 N 0,0
24.03.2019 02:00:00 -1,6 -2,6 0 0 4 2 N 0,0
24.03.2019 01:00:00 -1,1 -2,4 0 0 5 3 N -
24.03.2019 00:00:00 -0,6 -2,3 0 0 4 2 N 0,0
23.03.2019 23:00:00 0,2 -1,9 0 0 4 2 N 0,0
23.03.2019 22:00:00 1,1 -1,3 0 0 8 4 N 0,0
23.03.2019 21:00:00 2,3 -1,1 0 0 4 2 N 0,0
23.03.2019 20:00:00 4,0 -1,2 0 0 5 3 N 0,0
23.03.2019 19:00:00 6,4 -1,3 0 0 9 5 N -
23.03.2019 18:00:00 9,6 -0,6 5 3 13 7 NE 0,0
23.03.2019 17:00:00 16,9 -2,2 5 3 21 11 WSW 0,0
23.03.2019 16:00:00 18,7 -4,7 8 4 15 8 SSW 0,0
23.03.2019 15:00:00 18,1 -5,2 8 4 16 9 SW 0,0
23.03.2019 14:00:00 18,0 -8,2 5 3 15 8 SSW 0,0
23.03.2019 13:00:00 18,2 -5,8 2 1 9 5 S -
23.03.2019 12:00:00 16,6 -5,8 4 2 9 5 S 0,0
23.03.2019 11:00:00 12,4 -6,1 2 1 4 2 S 0,0
23.03.2019 10:00:00 4,9 -0,9 2 1 4 2 ESE 0,0
23.03.2019 09:00:00 -2,7 -3,8 0 0 4 2 N 0,0
23.03.2019 08:00:00 -3,1 -4,1 0 0 2 1 N 0,0
23.03.2019 07:00:00 -3,4 -4,4 0 0 4 2 N -
23.03.2019 06:00:00 -3,3 -4,3 0 0 4 2 N 0,0
23.03.2019 05:00:00 -3,1 -4,2 0 0 2 1 N 0,0
23.03.2019 04:00:00 -2,8 -4,1 0 0 4 2 N 0,0
23.03.2019 03:00:00 -2,5 -3,8 0 0 4 2 N 0,0
23.03.2019 02:00:00 -2,1 -3,8 0 0 4 2 N 0,0
23.03.2019 01:00:00 -1,6 -3,6 0 0 4 2 N -
23.03.2019 00:00:00 -1,2 -3,4 0 0 5 3 N 0,0
22.03.2019 23:00:00 -0,8 -3,3 0 0 4 2 N 0,0
22.03.2019 22:00:00 0,2 -3,0 0 0 5 3 N 0,0
22.03.2019 21:00:00 1,3 -3,2 0 0 4 2 N 0,0
22.03.2019 20:00:00 2,8 -2,3 0 0 5 3 N 0,0
22.03.2019 19:00:00 5,9 -3,0 0 0 15 8 N -
22.03.2019 18:00:00 8,7 -2,6 2 1 9 5 NE 0,0
22.03.2019 17:00:00 15,3 -5,7 5 3 13 7 NW 0,0
22.03.2019 16:00:00 18,2 -7,3 5 3 18 10 SSW 0,0
22.03.2019 15:00:00 17,6 -12,2 8 4 16 9 SSW 0,0
22.03.2019 14:00:00 16,8 -10,9 8 4 16 9 SW 0,0
22.03.2019 13:00:00 17,2 -12,5 4 2 11 6 W -
22.03.2019 12:00:00 16,4 -12,1 2 1 8 4 S 0,0
22.03.2019 11:00:00 11,5 -6,4 4 2 8 4 SE 0,0
22.03.2019 10:00:00 2,0 -0,3 0 0 4 2 N 0,0
22.03.2019 09:00:00 -3,9 -4,7 0 0 4 2 N 0,0
22.03.2019 08:00:00 -4,4 -5,2 0 0 4 2 N 0,0
22.03.2019 07:00:00 -4,7 -5,4 0 0 4 2 N -
22.03.2019 06:00:00 -4,6 -5,4 0 0 4 2 N 0,0
22.03.2019 05:00:00 -4,2 -5,0 0 0 4 2 N 0,0
22.03.2019 04:00:00 -3,9 -4,7 0 0 4 2 N 0,0
22.03.2019 03:00:00 -3,5 -4,3 0 0 4 2 N 0,0
22.03.2019 02:00:00 -3,0 -3,8 0 0 5 3 N 0,0
22.03.2019 01:00:00 -2,5 -3,3 0 0 5 3 N -
22.03.2019 00:00:00 -2,3 -3,3 0 0 4 2 N 0,0
21.03.2019 23:00:00 -1,6 -2,9 0 0 4 2 N 0,0
21.03.2019 22:00:00 -0,9 -2,5 2 1 4 2 NNE 0,0
21.03.2019 21:00:00 0,2 -2,2 0 0 5 3 N 0,0
21.03.2019 20:00:00 1,8 -1,3 2 1 4 2 NNW 0,0
21.03.2019 19:00:00 4,1 -0,9 0 0 4 2 N -
21.03.2019 18:00:00 8,9 -0,4 2 1 15 8 SW 0,0
21.03.2019 17:00:00 13,6 -2,4 8 4 22 12 SSW 0,0
21.03.2019 16:00:00 14,1 -3,7 9 5 22 12 SW 0,0
21.03.2019 15:00:00 13,8 -6,5 11 6 22 12 SW 0,0
21.03.2019 14:00:00 13,8 -6,5 8 4 21 11 SW 0,0
21.03.2019 13:00:00 13,6 -7,8 5 3 15 8 SSW -
21.03.2019 12:00:00 10,8 -6,1 5 3 16 9 SSW 0,0
21.03.2019 11:00:00 7,1 -6,3 2 1 9 5 S 0,0
21.03.2019 10:00:00 1,3 -3,0 0 0 8 4 N 0,0
21.03.2019 09:00:00 -4,7 -5,5 0 0 4 2 N 0,0
21.03.2019 08:00:00 -5,3 -6,1 0 0 5 3 N 0,0
21.03.2019 07:00:00 -5,5 -6,3 2 1 8 4 N -
21.03.2019 06:00:00 -5,4 -6,2 0 0 8 4 N 0,0
21.03.2019 05:00:00 -4,8 -5,8 4 2 8 4 NNW 0,0
21.03.2019 04:00:00 -4,6 -5,7 0 0 8 4 N 0,0
21.03.2019 03:00:00 -4,1 -5,4 2 1 8 4 NE 0,0
21.03.2019 02:00:00 -3,6 -4,9 4 2 8 4 NE 0,0
21.03.2019 01:00:00 -3,5 -4,9 2 1 8 4 NE -
21.03.2019 00:00:00 -3,1 -4,7 0 0 8 4 N 0,0
20.03.2019 23:00:00 -2,8 -4,5 0 0 4 2 N 0,0
20.03.2019 22:00:00 -2,2 -4,1 0 0 4 2 N 0,0
20.03.2019 21:00:00 -1,5 -4,2 0 0 4 2 N 0,0
20.03.2019 20:00:00 -0,2 -3,7 0 0 4 2 N 0,0

tt = temperature
td = dewpoint
ff = wind speed
fx = gusts
dd = wind direction
rr = precipitation

Next stations